sensor_id;sensor_type;location;lat;lon;timestamp;temperature;humidity
37786;DHT22;23625;48.784;9.336;2024-01-30T00:00:01;1.70;99.90
37786;DHT22;23625;48.784;9.336;2024-01-30T00:02:27;1.60;99.90
37786;DHT22;23625;48.784;9.336;2024-01-30T00:04:52;1.70;99.90
37786;DHT22;23625;48.784;9.336;2024-01-30T00:07:18;1.90;99.90
37786;DHT22;23625;48.784;9.336;2024-01-30T00:09:46;2.00;99.90
37786;DHT22;23625;48.784;9.336;2024-01-30T00:12:12;2.10;99.90
37786;DHT22;23625;48.784;9.336;2024-01-30T00:14:38;1.90;99.90
37786;DHT22;23625;48.784;9.336;2024-01-30T00:17:04;2.00;99.90
37786;DHT22;23625;48.784;9.336;2024-01-30T00:19:29;2.00;99.90
37786;DHT22;23625;48.784;9.336;2024-01-30T00:21:55;1.80;99.90
37786;DHT22;23625;48.784;9.336;2024-01-30T00:24:20;1.80;99.90
37786;DHT22;23625;48.784;9.336;2024-01-30T00:26:46;1.60;99.90
37786;DHT22;23625;48.784;9.336;2024-01-30T00:29:12;1.60;99.90
37786;DHT22;23625;48.784;9.336;2024-01-30T00:31:37;1.60;99.90
37786;DHT22;23625;48.784;9.336;2024-01-30T00:34:03;1.50;99.90
37786;DHT22;23625;48.784;9.336;2024-01-30T00:36:28;1.50;99.90
37786;DHT22;23625;48.784;9.336;2024-01-30T00:38:55;1.50;99.90
37786;DHT22;23625;48.784;9.336;2024-01-30T00:41:21;1.50;99.90
37786;DHT22;23625;48.784;9.336;2024-01-30T00:43:46;1.50;99.90
37786;DHT22;23625;48.784;9.336;2024-01-30T00:46:12;1.40;99.90
37786;DHT22;23625;48.784;9.336;2024-01-30T00:48:37;1.50;99.90
37786;DHT22;23625;48.784;9.336;2024-01-30T00:51:03;1.50;99.90
37786;DHT22;23625;48.784;9.336;2024-01-30T00:53:29;1.60;99.90
37786;DHT22;23625;48.784;9.336;2024-01-30T00:55:54;1.80;99.90
37786;DHT22;23625;48.784;9.336;2024-01-30T00:58:20;1.90;99.90
37786;DHT22;23625;48.784;9.336;2024-01-30T01:00:45;2.10;99.90
37786;DHT22;23625;48.784;9.336;2024-01-30T01:03:11;2.10;99.90
37786;DHT22;23625;48.784;9.336;2024-01-30T01:05:36;2.10;99.90
37786;DHT22;23625;48.784;9.336;2024-01-30T01:08:02;2.10;99.90
37786;DHT22;23625;48.784;9.336;2024-01-30T01:10:28;2.00;99.90
37786;DHT22;23625;48.784;9.336;2024-01-30T01:12:54;1.80;99.90
37786;DHT22;23625;48.784;9.336;2024-01-30T01:15:19;1.80;99.90
37786;DHT22;23625;48.784;9.336;2024-01-30T01:17:45;1.70;99.90
37786;DHT22;23625;48.784;9.336;2024-01-30T01:20:11;1.70;99.90
37786;DHT22;23625;48.784;9.336;2024-01-30T01:22:37;1.70;99.90
37786;DHT22;23625;48.784;9.336;2024-01-30T01:25:04;1.70;99.90
37786;DHT22;23625;48.784;9.336;2024-01-30T01:27:32;1.60;99.90
37786;DHT22;23625;48.784;9.336;2024-01-30T01:29:59;1.60;99.90
37786;DHT22;23625;48.784;9.336;2024-01-30T01:32:25;1.60;99.90
37786;DHT22;23625;48.784;9.336;2024-01-30T01:34:51;1.50;99.90
37786;DHT22;23625;48.784;9.336;2024-01-30T01:37:28;1.60;99.90
37786;DHT22;23625;48.784;9.336;2024-01-30T01:39:54;1.50;99.90
37786;DHT22;23625;48.784;9.336;2024-01-30T01:42:20;1.50;99.90
37786;DHT22;23625;48.784;9.336;2024-01-30T01:44:45;1.40;99.90
37786;DHT22;23625;48.784;9.336;2024-01-30T01:47:11;1.50;99.90
37786;DHT22;23625;48.784;9.336;2024-01-30T01:49:37;1.60;99.90
37786;DHT22;23625;48.784;9.336;2024-01-30T01:52:03;1.80;99.90
37786;DHT22;23625;48.784;9.336;2024-01-30T01:54:29;1.70;99.90
37786;DHT22;23625;48.784;9.336;2024-01-30T01:56:54;1.50;99.90
37786;DHT22;23625;48.784;9.336;2024-01-30T01:59:20;1.50;99.90
37786;DHT22;23625;48.784;9.336;2024-01-30T02:01:47;1.60;99.90
37786;DHT22;23625;48.784;9.336;2024-01-30T02:04:16;1.60;99.90
37786;DHT22;23625;48.784;9.336;2024-01-30T02:06:43;1.50;99.90
37786;DHT22;23625;48.784;9.336;2024-01-30T02:09:09;1.40;99.90
37786;DHT22;23625;48.784;9.336;2024-01-30T02:11:35;1.40;99.90
37786;DHT22;23625;48.784;9.336;2024-01-30T02:14:04;1.40;99.90
37786;DHT22;23625;48.784;9.336;2024-01-30T02:16:30;1.40;99.90
37786;DHT22;23625;48.784;9.336;2024-01-30T02:18:55;1.40;99.90
37786;DHT22;23625;48.784;9.336;2024-01-30T02:21:21;1.60;99.90
37786;DHT22;23625;48.784;9.336;2024-01-30T02:23:47;1.70;99.90
37786;DHT22;23625;48.784;9.336;2024-01-30T02:26:14;2.00;99.90
37786;DHT22;23625;48.784;9.336;2024-01-30T02:28:39;2.20;99.90
37786;DHT22;23625;48.784;9.336;2024-01-30T02:31:05;2.20;99.90
37786;DHT22;23625;48.784;9.336;2024-01-30T02:33:31;2.20;99.90
37786;DHT22;23625;48.784;9.336;2024-01-30T02:35:56;2.10;99.90
37786;DHT22;23625;48.784;9.336;2024-01-30T02:38:22;2.10;99.90
37786;DHT22;23625;48.784;9.336;2024-01-30T02:40:49;2.00;99.90
37786;DHT22;23625;48.784;9.336;2024-01-30T02:43:15;2.10;99.90
37786;DHT22;23625;48.784;9.336;2024-01-30T02:45:41;2.20;99.90
37786;DHT22;23625;48.784;9.336;2024-01-30T02:48:06;2.30;99.90
37786;DHT22;23625;48.784;9.336;2024-01-30T02:50:32;2.50;99.90
37786;DHT22;23625;48.784;9.336;2024-01-30T02:52:58;2.70;99.90
37786;DHT22;23625;48.784;9.336;2024-01-30T02:55:23;2.80;99.90
37786;DHT22;23625;48.784;9.336;2024-01-30T02:57:49;3.00;99.90
37786;DHT22;23625;48.784;9.336;2024-01-30T03:00:14;3.20;99.90
37786;DHT22;23625;48.784;9.336;2024-01-30T03:02:40;3.30;99.90
37786;DHT22;23625;48.784;9.336;2024-01-30T03:05:06;3.40;99.90
37786;DHT22;23625;48.784;9.336;2024-01-30T03:07:33;3.50;99.90
37786;DHT22;23625;48.784;9.336;2024-01-30T03:09:58;3.50;99.90
37786;DHT22;23625;48.784;9.336;2024-01-30T03:12:24;3.50;99.90
37786;DHT22;23625;48.784;9.336;2024-01-30T03:14:50;3.50;99.90
37786;DHT22;23625;48.784;9.336;2024-01-30T03:17:15;3.50;99.90
37786;DHT22;23625;48.784;9.336;2024-01-30T03:19:41;3.50;99.90
37786;DHT22;23625;48.784;9.336;2024-01-30T03:22:07;3.40;99.90
37786;DHT22;23625;48.784;9.336;2024-01-30T03:24:32;3.40;99.90
37786;DHT22;23625;48.784;9.336;2024-01-30T03:26:58;3.20;99.90
37786;DHT22;23625;48.784;9.336;2024-01-30T03:29:23;3.20;99.90
37786;DHT22;23625;48.784;9.336;2024-01-30T03:31:49;3.00;99.90
37786;DHT22;23625;48.784;9.336;2024-01-30T03:34:14;2.90;99.90
37786;DHT22;23625;48.784;9.336;2024-01-30T03:36:40;2.80;99.90
37786;DHT22;23625;48.784;9.336;2024-01-30T03:39:05;2.60;99.90
37786;DHT22;23625;48.784;9.336;2024-01-30T03:41:31;2.50;99.90
37786;DHT22;23625;48.784;9.336;2024-01-30T03:43:57;2.40;99.90
37786;DHT22;23625;48.784;9.336;2024-01-30T03:46:23;2.20;99.90
37786;DHT22;23625;48.784;9.336;2024-01-30T03:48:48;2.20;99.90
37786;DHT22;23625;48.784;9.336;2024-01-30T03:51:14;2.10;99.90
37786;DHT22;23625;48.784;9.336;2024-01-30T03:53:42;2.00;99.90
37786;DHT22;23625;48.784;9.336;2024-01-30T03:56:08;1.90;99.90
37786;DHT22;23625;48.784;9.336;2024-01-30T03:58:33;1.80;99.90
37786;DHT22;23625;48.784;9.336;2024-01-30T04:00:59;1.70;99.90
37786;DHT22;23625;48.784;9.336;2024-01-30T04:03:25;1.60;99.90
37786;DHT22;23625;48.784;9.336;2024-01-30T04:05:52;1.60;99.90
37786;DHT22;23625;48.784;9.336;2024-01-30T04:08:18;1.50;99.90
37786;DHT22;23625;48.784;9.336;2024-01-30T04:10:43;1.40;99.90
37786;DHT22;23625;48.784;9.336;2024-01-30T04:13:09;1.40;99.90
37786;DHT22;23625;48.784;9.336;2024-01-30T04:15:35;1.40;99.90
37786;DHT22;23625;48.784;9.336;2024-01-30T04:18:01;1.40;99.90
37786;DHT22;23625;48.784;9.336;2024-01-30T04:20:27;1.30;99.90
37786;DHT22;23625;48.784;9.336;2024-01-30T04:22:52;1.30;99.90
37786;DHT22;23625;48.784;9.336;2024-01-30T04:25:18;1.20;99.90
37786;DHT22;23625;48.784;9.336;2024-01-30T04:27:43;1.20;99.90
37786;DHT22;23625;48.784;9.336;2024-01-30T04:30:09;1.10;99.90
37786;DHT22;23625;48.784;9.336;2024-01-30T04:32:36;1.10;99.90
37786;DHT22;23625;48.784;9.336;2024-01-30T04:35:02;1.00;99.90
37786;DHT22;23625;48.784;9.336;2024-01-30T04:37:27;1.00;99.90
37786;DHT22;23625;48.784;9.336;2024-01-30T04:39:53;0.90;99.90
37786;DHT22;23625;48.784;9.336;2024-01-30T04:42:19;0.90;99.90
37786;DHT22;23625;48.784;9.336;2024-01-30T04:44:44;0.80;99.90
37786;DHT22;23625;48.784;9.336;2024-01-30T04:47:10;0.80;99.90
37786;DHT22;23625;48.784;9.336;2024-01-30T04:49:38;0.80;99.90
37786;DHT22;23625;48.784;9.336;2024-01-30T04:52:05;0.80;99.90
37786;DHT22;23625;48.784;9.336;2024-01-30T04:54:31;0.80;99.90
37786;DHT22;23625;48.784;9.336;2024-01-30T04:56:56;0.70;99.90
37786;DHT22;23625;48.784;9.336;2024-01-30T04:59:22;0.60;99.90
37786;DHT22;23625;48.784;9.336;2024-01-30T05:01:48;0.70;99.90
37786;DHT22;23625;48.784;9.336;2024-01-30T05:04:13;0.60;99.90
37786;DHT22;23625;48.784;9.336;2024-01-30T05:06:39;0.60;99.90
37786;DHT22;23625;48.784;9.336;2024-01-30T05:09:04;0.50;99.90
37786;DHT22;23625;48.784;9.336;2024-01-30T05:11:30;0.40;99.90
37786;DHT22;23625;48.784;9.336;2024-01-30T05:13:56;0.40;99.90
37786;DHT22;23625;48.784;9.336;2024-01-30T05:16:22;0.30;99.90
37786;DHT22;23625;48.784;9.336;2024-01-30T05:18:47;0.40;99.90
37786;DHT22;23625;48.784;9.336;2024-01-30T05:21:13;0.30;99.90
37786;DHT22;23625;48.784;9.336;2024-01-30T05:23:39;0.30;99.90
37786;DHT22;23625;48.784;9.336;2024-01-30T05:26:05;0.30;99.90
37786;DHT22;23625;48.784;9.336;2024-01-30T05:28:31;0.30;99.90
37786;DHT22;23625;48.784;9.336;2024-01-30T05:30:57;0.40;99.90
37786;DHT22;23625;48.784;9.336;2024-01-30T05:33:22;0.40;99.90
37786;DHT22;23625;48.784;9.336;2024-01-30T05:35:48;0.60;99.90
37786;DHT22;23625;48.784;9.336;2024-01-30T05:38:15;0.80;99.90
37786;DHT22;23625;48.784;9.336;2024-01-30T05:40:41;0.70;99.90
37786;DHT22;23625;48.784;9.336;2024-01-30T05:43:06;0.70;99.90
37786;DHT22;23625;48.784;9.336;2024-01-30T05:45:33;0.60;99.90
37786;DHT22;23625;48.784;9.336;2024-01-30T05:47:59;0.60;99.90
37786;DHT22;23625;48.784;9.336;2024-01-30T05:50:25;0.50;99.90
37786;DHT22;23625;48.784;9.336;2024-01-30T05:52:51;0.60;99.90
37786;DHT22;23625;48.784;9.336;2024-01-30T05:55:17;0.50;99.90
37786;DHT22;23625;48.784;9.336;2024-01-30T05:57:42;0.50;99.90
37786;DHT22;23625;48.784;9.336;2024-01-30T06:00:08;0.60;99.90
37786;DHT22;23625;48.784;9.336;2024-01-30T06:02:34;0.50;99.90
37786;DHT22;23625;48.784;9.336;2024-01-30T06:04:59;0.50;99.90
37786;DHT22;23625;48.784;9.336;2024-01-30T06:07:25;0.40;99.90
37786;DHT22;23625;48.784;9.336;2024-01-30T06:09:51;0.40;99.90
37786;DHT22;23625;48.784;9.336;2024-01-30T06:12:16;0.40;99.90
37786;DHT22;23625;48.784;9.336;2024-01-30T06:14:42;0.40;99.90
37786;DHT22;23625;48.784;9.336;2024-01-30T06:17:10;0.40;99.90
37786;DHT22;23625;48.784;9.336;2024-01-30T06:19:40;0.40;99.90
37786;DHT22;23625;48.784;9.336;2024-01-30T06:22:06;0.40;99.90
37786;DHT22;23625;48.784;9.336;2024-01-30T06:24:32;0.40;99.90
37786;DHT22;23625;48.784;9.336;2024-01-30T06:26:59;0.40;99.90
37786;DHT22;23625;48.784;9.336;2024-01-30T06:29:24;0.40;99.90
37786;DHT22;23625;48.784;9.336;2024-01-30T06:31:52;0.40;99.90
37786;DHT22;23625;48.784;9.336;2024-01-30T06:34:17;0.40;99.90
37786;DHT22;23625;48.784;9.336;2024-01-30T06:36:43;0.30;99.90
37786;DHT22;23625;48.784;9.336;2024-01-30T06:39:08;0.30;99.90
37786;DHT22;23625;48.784;9.336;2024-01-30T06:41:34;0.40;99.90
37786;DHT22;23625;48.784;9.336;2024-01-30T06:44:02;0.40;99.90
37786;DHT22;23625;48.784;9.336;2024-01-30T06:46:28;0.40;99.90
37786;DHT22;23625;48.784;9.336;2024-01-30T06:48:53;0.30;99.90
37786;DHT22;23625;48.784;9.336;2024-01-30T06:51:19;0.20;99.90
37786;DHT22;23625;48.784;9.336;2024-01-30T06:53:45;0.20;99.90
37786;DHT22;23625;48.784;9.336;2024-01-30T06:56:10;0.20;99.90
37786;DHT22;23625;48.784;9.336;2024-01-30T06:58:36;0.20;99.90
37786;DHT22;23625;48.784;9.336;2024-01-30T07:01:01;0.20;99.90
37786;DHT22;23625;48.784;9.336;2024-01-30T07:03:27;0.20;99.90
37786;DHT22;23625;48.784;9.336;2024-01-30T07:05:52;0.30;99.90
37786;DHT22;23625;48.784;9.336;2024-01-30T07:08:18;0.40;99.90
37786;DHT22;23625;48.784;9.336;2024-01-30T07:10:44;0.30;99.90
37786;DHT22;23625;48.784;9.336;2024-01-30T07:13:11;0.40;99.90
37786;DHT22;23625;48.784;9.336;2024-01-30T07:15:36;0.50;99.90
37786;DHT22;23625;48.784;9.336;2024-01-30T07:18:02;0.70;99.90
37786;DHT22;23625;48.784;9.336;2024-01-30T07:20:28;0.90;99.90
37786;DHT22;23625;48.784;9.336;2024-01-30T07:22:56;1.00;99.90
37786;DHT22;23625;48.784;9.336;2024-01-30T07:25:21;1.00;99.90
37786;DHT22;23625;48.784;9.336;2024-01-30T07:27:55;1.00;99.90
37786;DHT22;23625;48.784;9.336;2024-01-30T07:30:20;1.10;99.90
37786;DHT22;23625;48.784;9.336;2024-01-30T07:32:46;1.10;99.90
37786;DHT22;23625;48.784;9.336;2024-01-30T07:35:13;1.30;99.90
37786;DHT22;23625;48.784;9.336;2024-01-30T07:37:39;1.40;99.90
37786;DHT22;23625;48.784;9.336;2024-01-30T07:40:05;1.30;99.90
37786;DHT22;23625;48.784;9.336;2024-01-30T07:42:31;1.40;99.90
37786;DHT22;23625;48.784;9.336;2024-01-30T07:44:57;1.40;99.90
37786;DHT22;23625;48.784;9.336;2024-01-30T07:47:22;1.50;99.90
37786;DHT22;23625;48.784;9.336;2024-01-30T07:49:48;1.70;99.90
37786;DHT22;23625;48.784;9.336;2024-01-30T07:52:14;1.60;99.90
37786;DHT22;23625;48.784;9.336;2024-01-30T07:54:49;1.70;99.90
37786;DHT22;23625;48.784;9.336;2024-01-30T07:57:15;2.00;99.90
37786;DHT22;23625;48.784;9.336;2024-01-30T07:59:42;2.20;99.90
37786;DHT22;23625;48.784;9.336;2024-01-30T08:02:09;2.50;99.90
37786;DHT22;23625;48.784;9.336;2024-01-30T08:04:35;2.80;99.90
37786;DHT22;23625;48.784;9.336;2024-01-30T08:07:01;3.00;99.90
37786;DHT22;23625;48.784;9.336;2024-01-30T08:09:26;3.20;99.90
37786;DHT22;23625;48.784;9.336;2024-01-30T08:11:52;3.40;99.90
37786;DHT22;23625;48.784;9.336;2024-01-30T08:14:18;3.40;99.90
37786;DHT22;23625;48.784;9.336;2024-01-30T08:16:43;3.50;99.90
37786;DHT22;23625;48.784;9.336;2024-01-30T08:19:09;3.30;99.90
37786;DHT22;23625;48.784;9.336;2024-01-30T08:21:34;3.10;99.90
37786;DHT22;23625;48.784;9.336;2024-01-30T08:24:03;3.00;99.90
37786;DHT22;23625;48.784;9.336;2024-01-30T08:26:30;2.90;99.90
37786;DHT22;23625;48.784;9.336;2024-01-30T08:28:56;2.80;99.90
37786;DHT22;23625;48.784;9.336;2024-01-30T08:31:21;2.80;99.90
37786;DHT22;23625;48.784;9.336;2024-01-30T08:33:47;2.80;99.90
37786;DHT22;23625;48.784;9.336;2024-01-30T08:36:12;2.50;99.90
37786;DHT22;23625;48.784;9.336;2024-01-30T08:38:38;2.90;99.90
37786;DHT22;23625;48.784;9.336;2024-01-30T08:41:04;3.00;99.90
37786;DHT22;23625;48.784;9.336;2024-01-30T08:43:30;3.10;99.90
37786;DHT22;23625;48.784;9.336;2024-01-30T08:45:59;3.30;99.90
37786;DHT22;23625;48.784;9.336;2024-01-30T08:48:25;3.50;99.90
37786;DHT22;23625;48.784;9.336;2024-01-30T08:50:51;3.70;99.90
37786;DHT22;23625;48.784;9.336;2024-01-30T08:53:16;3.80;99.90
37786;DHT22;23625;48.784;9.336;2024-01-30T08:55:42;4.00;99.90
37786;DHT22;23625;48.784;9.336;2024-01-30T08:58:07;4.20;99.90
37786;DHT22;23625;48.784;9.336;2024-01-30T09:00:33;4.40;99.90
37786;DHT22;23625;48.784;9.336;2024-01-30T09:02:58;4.60;99.90
37786;DHT22;23625;48.784;9.336;2024-01-30T09:05:24;4.80;99.90
37786;DHT22;23625;48.784;9.336;2024-01-30T09:07:50;5.00;99.90
37786;DHT22;23625;48.784;9.336;2024-01-30T09:10:15;5.10;99.90
37786;DHT22;23625;48.784;9.336;2024-01-30T09:12:41;5.20;99.90
37786;DHT22;23625;48.784;9.336;2024-01-30T09:15:07;5.20;99.90
37786;DHT22;23625;48.784;9.336;2024-01-30T09:17:32;5.30;99.90
37786;DHT22;23625;48.784;9.336;2024-01-30T09:19:58;5.30;99.90
37786;DHT22;23625;48.784;9.336;2024-01-30T09:22:24;5.40;99.90
37786;DHT22;23625;48.784;9.336;2024-01-30T09:24:50;5.40;99.90
37786;DHT22;23625;48.784;9.336;2024-01-30T09:27:15;5.60;99.90
37786;DHT22;23625;48.784;9.336;2024-01-30T09:29:41;5.60;99.90
37786;DHT22;23625;48.784;9.336;2024-01-30T09:32:07;5.60;99.90
37786;DHT22;23625;48.784;9.336;2024-01-30T09:34:34;5.80;99.90
37786;DHT22;23625;48.784;9.336;2024-01-30T09:37:00;5.90;99.90
37786;DHT22;23625;48.784;9.336;2024-01-30T09:39:25;6.00;99.90
37786;DHT22;23625;48.784;9.336;2024-01-30T09:44:43;6.40;99.90
37786;DHT22;23625;48.784;9.336;2024-01-30T09:47:09;6.60;99.90
37786;DHT22;23625;48.784;9.336;2024-01-30T09:49:35;6.80;99.90
37786;DHT22;23625;48.784;9.336;2024-01-30T09:52:02;7.00;99.90
37786;DHT22;23625;48.784;9.336;2024-01-30T09:54:32;7.20;99.90
37786;DHT22;23625;48.784;9.336;2024-01-30T09:56:58;7.40;99.90
37786;DHT22;23625;48.784;9.336;2024-01-30T09:59:24;7.50;98.00
37786;DHT22;23625;48.784;9.336;2024-01-30T10:01:50;7.70;95.90
37786;DHT22;23625;48.784;9.336;2024-01-30T10:04:16;7.80;96.80
37786;DHT22;23625;48.784;9.336;2024-01-30T10:06:42;7.90;99.10
37786;DHT22;23625;48.784;9.336;2024-01-30T10:09:07;8.00;99.80
37786;DHT22;23625;48.784;9.336;2024-01-30T10:11:35;8.00;99.90
37786;DHT22;23625;48.784;9.336;2024-01-30T10:14:01;8.00;99.90
37786;DHT22;23625;48.784;9.336;2024-01-30T10:16:27;8.10;99.90
37786;DHT22;23625;48.784;9.336;2024-01-30T10:18:52;8.10;99.80
37786;DHT22;23625;48.784;9.336;2024-01-30T10:21:18;8.10;99.60
37786;DHT22;23625;48.784;9.336;2024-01-30T10:23:44;8.20;99.90
37786;DHT22;23625;48.784;9.336;2024-01-30T10:26:12;8.30;99.90
37786;DHT22;23625;48.784;9.336;2024-01-30T10:28:38;8.50;98.90
37786;DHT22;23625;48.784;9.336;2024-01-30T10:31:03;8.50;98.90
37786;DHT22;23625;48.784;9.336;2024-01-30T10:33:32;8.60;98.90
37786;DHT22;23625;48.784;9.336;2024-01-30T10:36:04;8.70;98.50
37786;DHT22;23625;48.784;9.336;2024-01-30T10:38:30;8.70;97.20
37786;DHT22;23625;48.784;9.336;2024-01-30T10:41:00;8.80;96.70
37786;DHT22;23625;48.784;9.336;2024-01-30T10:43:40;8.90;93.50
37786;DHT22;23625;48.784;9.336;2024-01-30T10:46:18;9.00;92.80
37786;DHT22;23625;48.784;9.336;2024-01-30T10:48:50;9.10;92.20
37786;DHT22;23625;48.784;9.336;2024-01-30T10:51:16;9.20;92.70
37786;DHT22;23625;48.784;9.336;2024-01-30T10:53:46;9.20;91.70
37786;DHT22;23625;48.784;9.336;2024-01-30T10:56:12;9.40;91.50
37786;DHT22;23625;48.784;9.336;2024-01-30T10:58:38;9.40;91.40
37786;DHT22;23625;48.784;9.336;2024-01-30T11:01:05;9.40;91.50
37786;DHT22;23625;48.784;9.336;2024-01-30T11:03:32;9.40;91.40
37786;DHT22;23625;48.784;9.336;2024-01-30T11:06:00;9.60;91.60
37786;DHT22;23625;48.784;9.336;2024-01-30T11:08:27;9.70;91.60
37786;DHT22;23625;48.784;9.336;2024-01-30T11:10:58;9.80;89.50
37786;DHT22;23625;48.784;9.336;2024-01-30T11:13:30;9.90;90.50
37786;DHT22;23625;48.784;9.336;2024-01-30T11:15:59;10.00;89.00
37786;DHT22;23625;48.784;9.336;2024-01-30T11:18:26;10.00;87.30
37786;DHT22;23625;48.784;9.336;2024-01-30T11:20:56;10.00;87.20
37786;DHT22;23625;48.784;9.336;2024-01-30T11:23:22;10.20;85.60
37786;DHT22;23625;48.784;9.336;2024-01-30T11:25:48;10.20;85.30
37786;DHT22;23625;48.784;9.336;2024-01-30T11:28:15;10.30;85.20
37786;DHT22;23625;48.784;9.336;2024-01-30T11:30:41;10.40;84.30
37786;DHT22;23625;48.784;9.336;2024-01-30T11:33:07;10.40;86.00
37786;DHT22;23625;48.784;9.336;2024-01-30T11:35:43;10.50;86.80
37786;DHT22;23625;48.784;9.336;2024-01-30T11:38:10;10.50;86.50
37786;DHT22;23625;48.784;9.336;2024-01-30T11:40:37;10.60;83.20
37786;DHT22;23625;48.784;9.336;2024-01-30T11:43:05;10.60;82.40
37786;DHT22;23625;48.784;9.336;2024-01-30T11:45:31;10.60;84.50
37786;DHT22;23625;48.784;9.336;2024-01-30T11:47:58;10.60;85.60
37786;DHT22;23625;48.784;9.336;2024-01-30T11:50:29;10.70;82.70
37786;DHT22;23625;48.784;9.336;2024-01-30T11:52:55;10.70;83.10
37786;DHT22;23625;48.784;9.336;2024-01-30T11:55:21;10.90;80.50
37786;DHT22;23625;48.784;9.336;2024-01-30T11:57:46;10.90;81.90
37786;DHT22;23625;48.784;9.336;2024-01-30T12:00:16;10.90;81.70
37786;DHT22;23625;48.784;9.336;2024-01-30T12:02:42;10.90;80.60
37786;DHT22;23625;48.784;9.336;2024-01-30T12:05:08;11.00;82.00
37786;DHT22;23625;48.784;9.336;2024-01-30T12:07:37;11.00;82.40
37786;DHT22;23625;48.784;9.336;2024-01-30T12:10:03;11.10;81.00
37786;DHT22;23625;48.784;9.336;2024-01-30T12:12:29;11.10;81.70
37786;DHT22;23625;48.784;9.336;2024-01-30T12:14:55;11.10;81.40
37786;DHT22;23625;48.784;9.336;2024-01-30T12:17:32;11.20;79.90
37786;DHT22;23625;48.784;9.336;2024-01-30T12:22:43;11.20;79.40
37786;DHT22;23625;48.784;9.336;2024-01-30T12:25:13;11.30;75.80
37786;DHT22;23625;48.784;9.336;2024-01-30T12:27:41;11.30;75.70
37786;DHT22;23625;48.784;9.336;2024-01-30T12:30:08;11.30;76.80
37786;DHT22;23625;48.784;9.336;2024-01-30T12:32:45;11.30;78.10
37786;DHT22;23625;48.784;9.336;2024-01-30T12:35:12;11.40;78.30
37786;DHT22;23625;48.784;9.336;2024-01-30T12:37:38;11.40;78.10
37786;DHT22;23625;48.784;9.336;2024-01-30T12:40:05;11.40;79.10
37786;DHT22;23625;48.784;9.336;2024-01-30T12:42:31;11.60;77.20
37786;DHT22;23625;48.784;9.336;2024-01-30T12:45:02;11.50;78.30
37786;DHT22;23625;48.784;9.336;2024-01-30T12:47:27;11.50;79.00
37786;DHT22;23625;48.784;9.336;2024-01-30T12:49:53;11.60;78.90
37786;DHT22;23625;48.784;9.336;2024-01-30T12:52:20;11.70;77.20
37786;DHT22;23625;48.784;9.336;2024-01-30T12:54:47;11.60;78.30
37786;DHT22;23625;48.784;9.336;2024-01-30T12:57:12;11.60;76.90
37786;DHT22;23625;48.784;9.336;2024-01-30T12:59:38;11.60;76.40
37786;DHT22;23625;48.784;9.336;2024-01-30T13:02:04;11.70;75.80
37786;DHT22;23625;48.784;9.336;2024-01-30T13:04:30;11.70;75.10
37786;DHT22;23625;48.784;9.336;2024-01-30T13:06:56;11.90;73.90
37786;DHT22;23625;48.784;9.336;2024-01-30T13:09:23;11.90;73.10
37786;DHT22;23625;48.784;9.336;2024-01-30T13:11:49;11.90;73.30
37786;DHT22;23625;48.784;9.336;2024-01-30T13:14:16;12.00;74.00
37786;DHT22;23625;48.784;9.336;2024-01-30T13:16:42;12.00;74.80
37786;DHT22;23625;48.784;9.336;2024-01-30T13:19:07;11.90;74.50
37786;DHT22;23625;48.784;9.336;2024-01-30T13:21:33;12.00;75.00
37786;DHT22;23625;48.784;9.336;2024-01-30T13:23:58;12.00;74.30
37786;DHT22;23625;48.784;9.336;2024-01-30T13:26:24;12.10;74.10
37786;DHT22;23625;48.784;9.336;2024-01-30T13:28:49;12.20;72.60
37786;DHT22;23625;48.784;9.336;2024-01-30T13:31:16;12.30;73.10
37786;DHT22;23625;48.784;9.336;2024-01-30T13:33:42;12.40;72.90
37786;DHT22;23625;48.784;9.336;2024-01-30T13:36:08;12.50;71.90
37786;DHT22;23625;48.784;9.336;2024-01-30T13:38:35;12.50;69.80
37786;DHT22;23625;48.784;9.336;2024-01-30T13:41:00;12.60;69.20
37786;DHT22;23625;48.784;9.336;2024-01-30T13:43:26;12.70;69.80
37786;DHT22;23625;48.784;9.336;2024-01-30T13:45:52;12.70;68.70
37786;DHT22;23625;48.784;9.336;2024-01-30T13:48:18;12.70;68.90
37786;DHT22;23625;48.784;9.336;2024-01-30T13:50:43;12.60;69.00
37786;DHT22;23625;48.784;9.336;2024-01-30T13:53:09;12.60;69.60
37786;DHT22;23625;48.784;9.336;2024-01-30T13:55:35;12.60;68.80
37786;DHT22;23625;48.784;9.336;2024-01-30T13:58:01;12.60;69.30
37786;DHT22;23625;48.784;9.336;2024-01-30T14:00:27;12.50;69.40
37786;DHT22;23625;48.784;9.336;2024-01-30T14:02:53;12.40;69.50
37786;DHT22;23625;48.784;9.336;2024-01-30T14:05:23;12.40;69.80
37786;DHT22;23625;48.784;9.336;2024-01-30T14:07:48;12.40;69.40
37786;DHT22;23625;48.784;9.336;2024-01-30T14:10:15;12.30;70.50
37786;DHT22;23625;48.784;9.336;2024-01-30T14:12:42;12.30;69.60
37786;DHT22;23625;48.784;9.336;2024-01-30T14:15:08;12.30;69.50
37786;DHT22;23625;48.784;9.336;2024-01-30T14:17:35;12.30;69.60
37786;DHT22;23625;48.784;9.336;2024-01-30T14:20:02;12.30;70.10
37786;DHT22;23625;48.784;9.336;2024-01-30T14:22:28;12.30;70.60
37786;DHT22;23625;48.784;9.336;2024-01-30T14:24:54;12.30;71.00
37786;DHT22;23625;48.784;9.336;2024-01-30T14:27:21;12.20;71.00
37786;DHT22;23625;48.784;9.336;2024-01-30T14:29:47;12.20;71.50
37786;DHT22;23625;48.784;9.336;2024-01-30T14:32:13;12.10;71.60
37786;DHT22;23625;48.784;9.336;2024-01-30T14:34:38;12.10;71.60
37786;DHT22;23625;48.784;9.336;2024-01-30T14:37:04;12.20;72.00
37786;DHT22;23625;48.784;9.336;2024-01-30T14:39:30;12.10;72.20
37786;DHT22;23625;48.784;9.336;2024-01-30T14:41:55;12.00;73.30
37786;DHT22;23625;48.784;9.336;2024-01-30T14:44:21;12.00;74.40
37786;DHT22;23625;48.784;9.336;2024-01-30T14:46:47;11.90;75.10
37786;DHT22;23625;48.784;9.336;2024-01-30T14:49:12;11.90;75.20
37786;DHT22;23625;48.784;9.336;2024-01-30T14:51:38;11.80;75.60
37786;DHT22;23625;48.784;9.336;2024-01-30T14:54:03;11.80;76.40
37786;DHT22;23625;48.784;9.336;2024-01-30T14:56:29;11.70;76.50
37786;DHT22;23625;48.784;9.336;2024-01-30T14:58:55;11.70;77.10
37786;DHT22;23625;48.784;9.336;2024-01-30T15:01:21;11.80;76.70
37786;DHT22;23625;48.784;9.336;2024-01-30T15:03:46;11.90;75.80
37786;DHT22;23625;48.784;9.336;2024-01-30T15:06:13;11.70;75.60
37786;DHT22;23625;48.784;9.336;2024-01-30T15:08:38;11.50;76.80
37786;DHT22;23625;48.784;9.336;2024-01-30T15:11:04;11.50;77.40
37786;DHT22;23625;48.784;9.336;2024-01-30T15:13:30;11.40;77.80
37786;DHT22;23625;48.784;9.336;2024-01-30T15:15:56;11.30;78.40
37786;DHT22;23625;48.784;9.336;2024-01-30T15:18:21;11.30;78.70
37786;DHT22;23625;48.784;9.336;2024-01-30T15:20:47;11.10;78.50
37786;DHT22;23625;48.784;9.336;2024-01-30T15:23:13;11.20;77.90
37786;DHT22;23625;48.784;9.336;2024-01-30T15:25:39;11.10;78.50
37786;DHT22;23625;48.784;9.336;2024-01-30T15:28:05;11.10;79.60
37786;DHT22;23625;48.784;9.336;2024-01-30T15:30:31;11.00;80.00
37786;DHT22;23625;48.784;9.336;2024-01-30T15:32:56;11.00;80.60
37786;DHT22;23625;48.784;9.336;2024-01-30T15:35:22;10.90;81.30
37786;DHT22;23625;48.784;9.336;2024-01-30T15:37:47;10.90;82.40
37786;DHT22;23625;48.784;9.336;2024-01-30T15:40:13;10.80;83.10